createdAt,value
2023-01-12T00:00:12.296Z,38.1510
2023-01-12T00:01:12.419Z,38.1210
2023-01-12T00:02:14.778Z,38.1260
2023-01-12T00:03:17.135Z,38.0860
2023-01-12T00:04:19.629Z,38.0740
2023-01-12T00:05:21.885Z,38.0800
2023-01-12T00:06:24.060Z,38.0780
2023-01-12T00:07:24.259Z,38.0260
2023-01-12T00:08:26.609Z,38.0200
2023-01-12T00:09:28.928Z,38.0270
2023-01-12T00:10:31.290Z,38.0210
2023-01-12T00:11:31.433Z,38.0210
2023-01-12T00:12:33.718Z,38.0320
2023-01-12T00:13:36.061Z,38.0040
2023-01-12T00:14:38.420Z,38.0320
2023-01-12T00:15:40.840Z,37.9790
2023-01-12T00:16:40.995Z,37.9730
2023-01-12T00:17:43.366Z,37.9620
2023-01-12T00:18:45.718Z,37.9500
2023-01-12T00:19:48.059Z,37.9550
2023-01-12T00:20:50.490Z,37.9370
2023-01-12T00:22:53.045Z,37.9830
2023-01-12T00:23:53.263Z,37.9620
2023-01-12T00:24:55.585Z,37.9370
2023-01-12T00:25:58.006Z,37.9140
2023-01-12T00:27:00.295Z,37.8960
2023-01-12T00:28:02.627Z,37.9080
2023-01-12T00:29:02.837Z,37.9030
2023-01-12T00:30:05.189Z,37.9140
2023-01-12T00:31:07.625Z,37.9240
2023-01-12T00:32:09.910Z,37.9010
2023-01-12T00:33:12.245Z,37.8820
2023-01-12T00:34:12.480Z,37.8850
2023-01-12T00:35:14.855Z,37.8820
2023-01-12T00:36:17.211Z,37.8700
2023-01-12T00:37:19.522Z,37.8590
2023-01-12T00:38:21.870Z,37.8920
2023-01-12T00:39:22.076Z,37.8800
2023-01-12T00:40:24.450Z,37.8630
2023-01-12T00:41:26.879Z,37.8700
2023-01-12T00:42:29.215Z,37.8090
2023-01-12T00:43:29.446Z,37.8130
2023-01-12T00:44:31.825Z,37.7910
2023-01-12T00:45:34.204Z,37.8050
2023-01-12T00:46:36.698Z,37.8000
2023-01-12T00:47:38.926Z,37.8300
2023-01-12T00:48:02.572Z,37.8000
2023-01-12T00:49:04.941Z,37.7970
2023-01-12T00:50:07.330Z,37.7770
2023-01-12T00:51:09.678Z,37.7610
2023-01-12T00:52:13.301Z,37.7770
2023-01-12T00:53:12.275Z,37.7860
2023-01-12T00:54:14.632Z,37.7770
2023-01-12T00:55:17.034Z,37.7420
2023-01-12T00:56:17.221Z,37.7420
2023-01-12T00:57:19.635Z,37.7560
2023-01-12T00:58:21.946Z,37.7420
2023-01-12T00:59:24.323Z,37.7230
2023-01-12T01:00:26.642Z,37.7120
2023-01-12T01:01:26.913Z,37.7000
2023-01-12T01:02:29.459Z,37.6790
2023-01-12T01:03:31.524Z,37.6670
2023-01-12T01:04:33.887Z,37.6740
2023-01-12T01:05:36.332Z,37.6620
2023-01-12T01:06:36.569Z,37.6690
2023-01-12T01:07:39.023Z,37.6720
2023-01-12T01:10:01.061Z,37.7100
2023-01-12T01:11:01.176Z,37.6680
2023-01-12T01:12:03.491Z,37.6290
2023-01-12T01:13:05.868Z,37.5610
2023-01-12T01:14:08.211Z,37.5530
2023-01-12T01:15:10.558Z,37.5820
2023-01-12T01:16:10.718Z,37.6010
2023-01-12T01:17:13.021Z,37.6010
2023-01-12T01:18:15.386Z,37.5590
2023-01-12T01:19:17.688Z,37.5710
2023-01-12T01:20:20.071Z,37.5630
2023-01-12T01:21:20.352Z,37.5270
2023-01-12T01:22:22.690Z,37.5360
2023-01-12T01:23:25.210Z,37.5050
2023-01-12T01:24:27.429Z,37.4840
2023-01-12T01:25:29.809Z,37.4780
2023-01-12T01:26:30.037Z,37.4240
2023-01-12T01:27:32.381Z,37.4550
2023-01-12T01:28:34.879Z,37.4770
2023-01-12T01:29:37.136Z,37.4830
2023-01-12T01:30:37.357Z,37.4730
2023-01-12T01:31:39.703Z,37.4410
2023-01-12T01:32:42.050Z,37.4570
2023-01-12T01:33:44.568Z,37.4680
2023-01-12T01:34:46.753Z,37.4620
2023-01-12T01:35:46.965Z,37.4500
2023-01-12T01:36:49.292Z,37.3910
2023-01-12T01:37:49.512Z,37.4160
2023-01-12T01:38:51.926Z,37.4270
2023-01-12T01:39:54.229Z,37.4390
2023-01-12T01:40:54.449Z,37.4110
2023-01-12T01:41:56.822Z,37.4180
2023-01-12T01:42:59.164Z,37.4010
2023-01-12T01:44:01.556Z,37.3690
2023-01-12T01:45:03.889Z,37.4110
2023-01-12T01:46:04.140Z,37.3950
2023-01-12T01:47:06.406Z,37.3690
2023-01-12T01:48:08.711Z,37.3720
2023-01-12T01:49:11.013Z,37.3480
2023-01-12T01:50:13.314Z,37.3350
2023-01-12T01:51:13.466Z,37.3190
2023-01-12T01:52:15.818Z,37.3100
2023-01-12T01:53:18.112Z,37.3400
2023-01-12T01:54:20.505Z,37.3340
2023-01-12T01:55:22.820Z,37.3670
2023-01-12T01:56:23.021Z,37.3630
2023-01-12T01:57:25.347Z,37.3460
2023-01-12T01:58:27.633Z,37.3100
2023-01-12T01:59:29.969Z,37.3310
2023-01-12T02:00:32.216Z,37.3100
2023-01-12T02:01:34.598Z,37.3040
2023-01-12T02:02:36.930Z,37.2930
2023-01-12T02:03:37.060Z,37.2870
2023-01-12T02:04:39.410Z,37.2700
2023-01-12T02:05:41.720Z,37.2580
2023-01-12T02:06:44.040Z,37.2470
2023-01-12T02:07:46.434Z,37.2520
2023-01-12T02:08:46.609Z,37.2720
2023-01-12T02:09:49.045Z,37.2470
2023-01-12T02:10:51.377Z,37.2520
2023-01-12T02:11:53.754Z,37.1820
2023-01-12T02:12:54.993Z,37.2660
2023-01-12T02:13:57.400Z,37.3920
2023-01-12T02:14:58.787Z,37.4630
2023-01-12T02:16:01.168Z,37.3930
2023-01-12T02:17:03.417Z,37.3200
2023-01-12T02:18:05.793Z,37.2780
2023-01-12T02:19:08.181Z,37.2610
2023-01-12T02:20:08.461Z,37.2110
2023-01-12T02:21:10.801Z,37.1960
2023-01-12T02:22:13.146Z,37.1900
2023-01-12T02:23:15.504Z,37.1900
2023-01-12T02:24:17.787Z,37.1400
2023-01-12T02:25:17.950Z,37.1670
2023-01-12T02:26:20.303Z,37.1670
2023-01-12T02:27:22.611Z,37.1730
2023-01-12T02:28:24.962Z,37.1620
2023-01-12T02:29:27.232Z,37.1400
2023-01-12T02:30:29.579Z,37.1460
2023-01-12T02:31:29.781Z,37.1400
2023-01-12T02:32:32.112Z,37.1120
2023-01-12T02:33:34.467Z,37.0870
2023-01-12T02:34:36.820Z,37.0930
2023-01-12T02:35:39.327Z,37.0870
2023-01-12T02:36:41.526Z,37.0810
2023-01-12T02:37:43.851Z,37.0870
2023-01-12T02:38:46.243Z,37.0640
2023-01-12T02:39:48.575Z,37.0640
2023-01-12T02:40:48.916Z,37.0640
2023-01-12T02:41:51.120Z,37.0470
2023-01-12T02:42:53.475Z,37.0700
2023-01-12T02:43:55.830Z,37.0640
2023-01-12T02:44:58.191Z,37.0350
2023-01-12T02:45:58.403Z,37.0470
2023-01-12T02:47:00.756Z,37.0350
2023-01-12T02:48:03.083Z,37.0490
2023-01-12T02:49:05.386Z,37.0490
2023-01-12T02:50:07.734Z,36.9840
2023-01-12T02:51:07.975Z,37.0440
2023-01-12T02:52:10.238Z,37.0260
2023-01-12T02:53:12.563Z,37.0320
2023-01-12T02:54:14.930Z,37.0320
2023-01-12T02:55:17.282Z,37.0090
2023-01-12T02:56:17.539Z,37.0380
2023-01-12T02:57:19.846Z,37.0320
2023-01-12T02:58:22.215Z,36.9790
2023-01-12T02:59:24.603Z,36.9560
2023-01-12T03:00:27.089Z,36.9860
2023-01-12T03:01:27.449Z,36.9790
2023-01-12T03:02:29.711Z,36.9960
2023-01-12T03:03:32.140Z,36.9960
2023-01-12T03:04:34.549Z,37.0190
2023-01-12T03:05:34.806Z,37.0020
2023-01-12T03:06:37.239Z,37.0460
2023-01-12T03:07:39.620Z,37.0860
2023-01-12T03:08:39.846Z,37.0760
2023-01-12T03:09:42.291Z,37.1030
2023-01-12T03:10:44.680Z,37.0840
2023-01-12T03:11:47.159Z,37.0720
2023-01-12T03:12:49.474Z,37.0490
2023-01-12T03:13:51.837Z,37.0720
2023-01-12T03:14:54.229Z,37.0650
2023-01-12T03:15:56.708Z,37.0490
2023-01-12T03:16:56.957Z,37.0660
2023-01-12T03:17:59.355Z,37.0760
2023-01-12T03:19:01.804Z,37.0320
2023-01-12T03:20:02.073Z,37.0080
2023-01-12T03:21:04.430Z,37.0290
2023-01-12T03:22:06.839Z,37.0260
2023-01-12T03:23:09.173Z,37.0170
2023-01-12T03:24:11.541Z,36.9620
2023-01-12T03:25:11.778Z,36.9730
2023-01-12T03:26:14.148Z,36.9620
2023-01-12T03:27:16.556Z,36.9160
2023-01-12T03:28:18.906Z,36.9090
2023-01-12T03:29:19.163Z,36.9160
2023-01-12T03:30:21.490Z,36.9160
2023-01-12T03:31:23.859Z,36.8970
2023-01-12T03:32:26.255Z,36.8860
2023-01-12T03:33:28.596Z,36.8970
2023-01-12T03:34:28.863Z,36.8860
2023-01-12T03:35:31.244Z,36.8570
2023-01-12T03:36:33.631Z,36.8360
2023-01-12T03:37:36.048Z,36.8270
2023-01-12T03:38:36.230Z,36.8510
2023-01-12T03:39:38.585Z,36.8800
2023-01-12T03:40:41.011Z,36.8500
2023-01-12T03:41:43.347Z,36.8510
2023-01-12T03:42:43.532Z,36.8510
2023-01-12T03:43:45.798Z,36.8550
2023-01-12T03:44:48.110Z,36.8550
2023-01-12T03:45:50.427Z,36.8510
2023-01-12T03:46:52.834Z,36.8100
2023-01-12T03:47:55.239Z,36.8480
2023-01-12T03:48:57.442Z,36.8590
2023-01-12T03:49:59.800Z,36.8730
2023-01-12T03:51:02.183Z,36.8710
2023-01-12T03:52:04.567Z,36.8380
2023-01-12T03:53:04.784Z,36.8100
2023-01-12T03:54:07.110Z,36.8270
2023-01-12T03:55:09.430Z,36.8010
2023-01-12T03:56:11.810Z,36.8120
2023-01-12T03:57:14.187Z,36.8210
2023-01-12T03:58:14.396Z,36.8210
2023-01-12T03:59:16.728Z,36.7620
2023-01-12T04:00:19.146Z,36.7890
2023-01-12T04:01:21.679Z,36.7680
2023-01-12T04:02:21.854Z,36.7850
2023-01-12T04:03:24.402Z,36.7570
2023-01-12T04:04:26.702Z,36.7450
2023-01-12T04:05:29.123Z,36.7510
2023-01-12T04:06:29.367Z,36.7510
2023-01-12T04:07:31.771Z,36.7570
2023-01-12T04:08:34.298Z,36.7300
2023-01-12T04:09:36.624Z,36.7340
2023-01-12T04:10:36.888Z,36.7690
2023-01-12T04:11:39.314Z,36.8070
2023-01-12T04:12:41.639Z,36.8370
2023-01-12T04:13:44.072Z,36.8230
2023-01-12T04:14:46.897Z,36.7910
2023-01-12T04:15:46.579Z,36.8130
2023-01-12T04:16:48.920Z,36.8650
2023-01-12T04:17:51.253Z,36.8560
2023-01-12T04:18:53.650Z,36.9020
2023-01-12T04:19:53.812Z,36.9300
2023-01-12T04:20:56.185Z,36.9400
2023-01-12T04:21:58.497Z,36.9520
2023-01-12T04:23:00.801Z,36.9750
2023-01-12T04:24:03.157Z,36.9570
2023-01-12T04:25:06.720Z,36.9570
2023-01-12T04:26:07.818Z,37.1690
2023-01-12T04:27:10.214Z,37.2400
2023-01-12T04:28:12.551Z,37.3450
2023-01-12T04:29:12.896Z,37.3860
2023-01-12T04:30:15.133Z,37.4150
2023-01-12T04:31:17.541Z,37.3820
2023-01-12T04:32:19.820Z,37.3760
2023-01-12T04:33:22.149Z,37.3930
2023-01-12T04:34:22.380Z,37.4580
2023-01-12T04:35:24.722Z,37.4790
2023-01-12T04:36:27.023Z,37.4910
2023-01-12T04:37:29.378Z,37.5110
2023-01-12T04:38:31.711Z,37.5460
2023-01-12T04:39:31.942Z,37.6050
2023-01-12T04:40:34.279Z,37.6170
2023-01-12T04:41:36.629Z,37.6110
2023-01-12T04:42:39.020Z,37.6300
2023-01-12T04:43:39.188Z,37.6310
2023-01-12T04:44:41.639Z,37.6460
2023-01-12T04:45:44.127Z,37.6700
2023-01-12T04:46:46.222Z,37.7020
2023-01-12T04:47:48.522Z,37.6600
2023-01-12T04:48:50.785Z,37.6810
2023-01-12T04:49:53.095Z,37.6550
2023-01-12T04:50:53.236Z,37.6770
2023-01-12T04:51:55.547Z,37.6840
2023-01-12T04:52:57.878Z,37.6960
2023-01-12T04:54:00.227Z,37.7250
2023-01-12T04:55:02.605Z,37.7250
2023-01-12T04:56:02.773Z,37.7550
2023-01-12T04:57:05.118Z,37.6900
2023-01-12T04:58:07.503Z,37.6610
2023-01-12T04:59:09.862Z,37.6900
2023-01-12T05:00:12.222Z,37.6840
2023-01-12T05:01:12.551Z,37.6610
2023-01-12T05:02:14.839Z,37.7200
2023-01-12T05:03:17.107Z,37.6240
2023-01-12T05:04:19.533Z,37.5950
2023-01-12T05:05:21.847Z,37.5700
2023-01-12T05:06:22.008Z,37.5920
2023-01-12T05:07:24.350Z,37.5580
2023-01-12T05:08:26.697Z,37.5460
2023-01-12T05:09:29.073Z,37.4930
2023-01-12T05:11:10.241Z,37.5540
2023-01-12T05:12:12.483Z,37.5300
2023-01-12T05:13:14.861Z,37.4780
2023-01-12T05:14:17.181Z,37.4590
2023-01-12T05:15:19.480Z,37.4840
2023-01-12T05:16:21.876Z,37.4660
2023-01-12T05:17:21.923Z,37.4260
2023-01-12T05:18:24.220Z,37.3960
2023-01-12T05:19:26.538Z,37.4070
2023-01-12T05:20:28.826Z,37.3990
2023-01-12T05:21:31.181Z,37.3750
2023-01-12T05:22:33.460Z,37.4110
2023-01-12T05:23:33.624Z,37.3940
2023-01-12T05:24:35.949Z,37.4130
2023-01-12T05:25:38.254Z,37.4160
2023-01-12T05:26:40.698Z,37.4930
2023-01-12T05:27:42.886Z,37.6040
2023-01-12T05:28:45.212Z,37.6780
2023-01-12T05:29:45.348Z,37.7280
2023-01-12T05:30:47.678Z,37.7810
2023-01-12T05:31:49.993Z,37.8250
2023-01-12T05:32:52.282Z,37.8430
2023-01-12T05:33:54.604Z,37.8200
2023-01-12T05:34:56.913Z,37.7910
2023-01-12T05:35:57.081Z,37.7910
2023-01-12T05:36:57.286Z,37.8370
2023-01-12T05:37:59.589Z,37.8430
2023-01-12T05:39:01.924Z,37.9190
2023-01-12T05:40:04.257Z,37.9170
2023-01-12T05:41:06.564Z,37.9570
2023-01-12T05:42:06.795Z,37.9830
2023-01-12T05:43:09.078Z,38.0100
2023-01-12T05:44:11.457Z,37.9790
2023-01-12T05:45:13.779Z,38.0150
2023-01-12T05:46:16.230Z,38.0490
2023-01-12T05:47:18.490Z,38.0670
2023-01-12T05:48:20.648Z,38.1090
2023-01-12T05:49:22.967Z,38.1370
2023-01-12T05:50:25.312Z,38.1320
2023-01-12T05:51:27.657Z,38.1550
2023-01-12T05:52:30.100Z,38.1490
2023-01-12T05:53:30.126Z,38.1970
2023-01-12T05:54:32.449Z,38.2570
2023-01-12T05:55:34.770Z,38.2260
2023-01-12T05:56:37.091Z,38.2290
2023-01-12T05:57:39.409Z,38.2290
2023-01-12T05:58:39.518Z,38.2500
2023-01-12T05:59:41.866Z,38.2700
2023-01-12T06:00:44.179Z,38.2940
2023-01-12T06:01:46.524Z,38.2890
2023-01-12T06:02:46.746Z,38.3120
2023-01-12T06:03:49.091Z,38.3290
2023-01-12T06:04:51.516Z,38.3240
2023-01-12T06:05:53.790Z,38.2820
2023-01-12T06:06:56.140Z,38.3480
2023-01-12T06:07:56.378Z,38.3290
2023-01-12T06:08:58.742Z,38.3740
2023-01-12T06:10:01.137Z,38.2620
2023-01-12T06:11:03.547Z,37.2970
2023-01-12T06:12:05.954Z,37.5510
2023-01-12T06:13:06.189Z,37.9320
2023-01-12T06:14:08.546Z,37.9600
2023-01-12T06:15:10.990Z,37.9400
2023-01-12T06:16:13.458Z,37.9230
2023-01-12T06:17:13.640Z,37.9340
2023-01-12T06:18:16.075Z,37.9180
2023-01-12T06:19:18.467Z,37.9060
2023-01-12T06:20:20.905Z,37.9190
2023-01-12T06:21:21.185Z,37.8820
2023-01-12T06:22:23.583Z,37.8430
2023-01-12T06:23:35.269Z,37.8480
2023-01-12T06:24:26.232Z,37.8790
2023-01-12T06:25:28.641Z,37.8370
2023-01-12T06:26:28.872Z,37.8200
2023-01-12T06:27:31.238Z,37.7600
2023-01-12T06:28:33.744Z,36.8090
2023-01-12T06:29:35.964Z,36.4220
2023-01-12T06:30:36.199Z,35.9520
2023-01-12T06:31:38.529Z,35.8380
2023-01-12T06:32:40.899Z,34.8710
2023-01-12T06:33:43.313Z,35.2330
2023-01-12T06:34:45.628Z,36.1480
2023-01-12T06:35:45.815Z,36.7080
2023-01-12T06:36:48.223Z,37.2350
2023-01-12T06:37:50.650Z,37.3820
2023-01-12T06:38:53.093Z,37.1590
2023-01-12T06:39:53.334Z,37.0410
2023-01-12T06:40:55.730Z,36.9970
2023-01-12T06:41:58.092Z,36.9180
2023-01-12T06:43:00.448Z,36.9400
2023-01-12T06:44:02.376Z,36.8830
2023-01-12T06:45:03.010Z,36.8810
2023-01-12T06:46:05.432Z,36.8880
2023-01-12T06:47:07.736Z,36.8990
2023-01-12T06:48:07.963Z,36.8730
2023-01-12T06:49:10.340Z,36.8670
2023-01-12T06:50:12.673Z,36.8400
2023-01-12T06:51:15.030Z,36.7940
2023-01-12T06:52:17.410Z,36.7230
2023-01-12T06:53:17.627Z,36.7100
2023-01-12T06:54:20.147Z,36.7240
2023-01-12T06:55:22.384Z,36.7280
2023-01-12T06:56:24.733Z,36.7130
2023-01-12T06:57:27.055Z,36.7070
2023-01-12T06:58:27.259Z,36.6620
2023-01-12T06:59:29.688Z,36.6470
2023-01-12T07:00:31.926Z,36.5760
2023-01-12T07:01:34.419Z,36.6150
2023-01-12T07:02:36.637Z,36.6680
2023-01-12T07:03:36.836Z,36.6560
2023-01-12T07:04:39.260Z,36.6910
2023-01-12T07:05:41.532Z,36.7020
2023-01-12T07:06:43.899Z,36.7080
2023-01-12T07:07:46.277Z,36.6970
2023-01-12T07:08:48.621Z,36.6740
2023-01-12T07:09:51.015Z,36.7180
2023-01-12T07:10:53.400Z,36.7080
2023-01-12T07:11:53.614Z,36.7000
2023-01-12T07:12:55.974Z,36.7020
2023-01-12T07:13:58.334Z,36.6690
2023-01-12T07:15:00.833Z,36.6870
2023-01-12T07:16:03.154Z,36.6940
2023-01-12T07:17:03.298Z,36.7000
2023-01-12T07:18:05.636Z,36.7000
2023-01-12T07:19:08.015Z,36.7140
2023-01-12T07:20:10.327Z,36.6850
2023-01-12T07:21:12.702Z,36.6810
2023-01-12T07:22:12.967Z,36.6690
2023-01-12T07:23:15.380Z,36.6740
2023-01-12T07:24:17.778Z,36.6870
2023-01-12T07:25:18.124Z,36.6640
2023-01-12T07:26:20.501Z,36.7270
2023-01-12T07:27:22.917Z,36.7270
2023-01-12T07:28:25.312Z,36.7050
2023-01-12T07:29:25.564Z,36.6690
2023-01-12T07:30:28.030Z,36.6690
2023-01-12T07:31:30.418Z,36.7170
2023-01-12T07:32:32.787Z,36.6630
2023-01-12T07:33:33.022Z,36.6640
2023-01-12T07:34:35.444Z,36.6690
2023-01-12T07:35:37.907Z,36.6520
2023-01-12T07:36:40.299Z,36.6940
2023-01-12T07:37:40.572Z,36.6790
2023-01-12T07:38:42.965Z,36.6690
2023-01-12T07:39:45.333Z,36.6350
2023-01-12T07:40:47.790Z,36.5990
2023-01-12T07:41:48.000Z,36.6110
2023-01-12T07:42:50.368Z,36.6690
2023-01-12T07:43:52.784Z,36.6750
2023-01-12T07:44:55.229Z,36.6470
2023-01-12T07:45:57.667Z,36.6050
2023-01-12T07:47:00.033Z,36.6300
2023-01-12T07:48:02.484Z,36.6560
2023-01-12T07:49:02.704Z,36.6690
2023-01-12T07:50:05.088Z,36.6020
2023-01-12T07:51:07.513Z,36.5320
2023-01-12T07:52:09.893Z,36.5770
2023-01-12T07:53:10.108Z,36.5760
2023-01-12T07:54:12.488Z,36.5990
2023-01-12T07:55:14.836Z,36.5930
2023-01-12T07:56:17.235Z,36.5760
2023-01-12T07:57:19.571Z,36.5990
2023-01-12T07:58:19.780Z,36.5640
2023-01-12T07:59:22.145Z,36.5810
2023-01-12T08:00:24.497Z,36.5590
2023-01-12T08:01:26.941Z,36.5130
2023-01-12T08:02:29.156Z,36.5510
2023-01-12T08:03:29.389Z,36.5430
2023-01-12T08:04:31.679Z,36.5230
2023-01-12T08:05:34.030Z,36.5460
2023-01-12T08:06:36.527Z,36.4960
2023-01-12T08:07:38.758Z,36.5190
2023-01-12T08:08:38.995Z,36.4790
2023-01-12T08:09:41.383Z,36.4150
2023-01-12T08:10:43.747Z,36.4450
2023-01-12T08:11:46.110Z,36.4390
2023-01-12T08:12:46.300Z,36.3590
2023-01-12T08:13:48.663Z,36.3650
2023-01-12T08:14:51.034Z,36.3210
2023-01-12T08:15:53.381Z,36.3310
2023-01-12T08:16:55.860Z,36.3380
2023-01-12T08:17:55.937Z,36.3190
2023-01-12T08:18:58.397Z,36.3330
2023-01-12T08:20:00.807Z,36.3360
2023-01-12T08:21:03.240Z,36.3270
2023-01-12T08:22:05.703Z,36.3310
2023-01-12T08:23:08.057Z,36.3120
2023-01-12T08:24:10.466Z,36.3320
2023-01-12T08:25:10.747Z,36.2830
2023-01-12T08:26:13.153Z,36.2420
2023-01-12T08:27:15.578Z,36.3220
2023-01-12T08:28:17.962Z,36.3220
2023-01-12T08:29:18.224Z,36.2820
2023-01-12T08:30:20.639Z,36.3010
2023-01-12T08:31:23.033Z,36.2600
2023-01-12T08:32:25.426Z,36.2260
2023-01-12T08:33:25.665Z,36.2240
2023-01-12T08:34:28.133Z,36.2720
2023-01-12T08:35:30.548Z,36.2650
2023-01-12T08:36:30.791Z,36.2130
2023-01-12T08:37:33.296Z,36.1990
2023-01-12T08:38:35.629Z,36.1220
2023-01-12T08:39:37.970Z,36.0440
2023-01-12T08:40:38.240Z,36.0290
2023-01-12T08:41:40.613Z,36.0290
2023-01-12T08:42:43.043Z,36.0730
2023-01-12T08:43:45.418Z,36.0710
2023-01-12T08:44:45.648Z,36.0730
2023-01-12T08:45:48.068Z,36.0080
2023-01-12T08:46:50.535Z,35.9810
2023-01-12T08:47:52.896Z,35.9410
2023-01-12T08:48:55.262Z,35.9750
2023-01-12T08:49:55.475Z,35.9980
2023-01-12T08:50:57.842Z,36.0640
2023-01-12T08:52:00.253Z,36.1160
2023-01-12T08:53:02.624Z,36.1050
2023-01-12T08:54:02.895Z,36.0670
2023-01-12T08:55:05.278Z,36.0500
2023-01-12T08:56:07.654Z,36.0240
2023-01-12T08:57:07.885Z,35.8460
2023-01-12T08:58:10.277Z,35.8720
2023-01-12T08:59:12.675Z,35.8650
2023-01-12T09:00:15.084Z,35.8670
2023-01-12T09:01:15.462Z,35.8200
2023-01-12T09:02:17.921Z,35.8550
2023-01-12T09:03:20.149Z,35.8070
2023-01-12T09:04:22.526Z,35.7930
2023-01-12T09:05:22.819Z,35.7430
2023-01-12T09:06:25.170Z,35.6590
2023-01-12T09:07:27.576Z,35.6220
2023-01-12T09:08:29.978Z,35.7210
2023-01-12T09:09:30.233Z,35.7740
2023-01-12T09:10:32.604Z,35.7820
2023-01-12T09:11:34.996Z,35.7910
2023-01-12T09:12:37.388Z,35.8810
2023-01-12T09:13:37.656Z,36.0260
2023-01-12T09:14:39.988Z,36.0870
2023-01-12T09:15:48.203Z,36.0890
2023-01-12T09:16:44.712Z,36.1010
2023-01-12T09:17:44.850Z,36.1340
2023-01-12T09:18:47.166Z,36.1220
2023-01-12T09:19:49.470Z,36.0890
2023-01-12T09:20:51.831Z,36.0260
2023-01-12T09:21:54.109Z,35.8890
2023-01-12T09:22:56.398Z,35.7150
2023-01-12T09:23:56.673Z,35.6250
2023-01-12T09:24:58.843Z,35.6680
2023-01-12T09:26:01.219Z,35.7310
2023-01-12T09:27:03.588Z,35.7860
2023-01-12T09:28:05.956Z,35.7950
2023-01-12T09:29:06.154Z,35.8090
2023-01-12T09:30:08.482Z,35.8360
2023-01-12T09:31:10.999Z,35.8580
2023-01-12T09:32:13.183Z,35.9590
2023-01-12T09:33:15.541Z,35.9380
2023-01-12T09:34:15.812Z,35.9460
2023-01-12T09:35:18.110Z,35.9330
2023-01-12T09:36:20.451Z,35.8570
2023-01-12T09:37:22.739Z,35.9050
2023-01-12T09:38:25.137Z,35.9530
2023-01-12T09:39:28.613Z,35.9800
2023-01-12T09:40:29.771Z,35.9860
2023-01-12T09:41:32.103Z,36.0350
2023-01-12T09:42:34.461Z,36.0120
2023-01-12T09:43:36.780Z,36.0470
2023-01-12T09:44:37.027Z,36.0300
2023-01-12T09:45:39.490Z,36.0090
2023-01-12T09:46:41.676Z,35.9700
2023-01-12T09:47:44.025Z,36.0030
2023-01-12T09:48:46.396Z,35.9990
2023-01-12T09:49:46.632Z,35.9530
2023-01-12T09:50:48.991Z,35.9870
2023-01-12T09:51:51.372Z,35.8930
2023-01-12T09:52:53.668Z,35.9620
2023-01-12T09:53:56.024Z,35.8870
2023-01-12T09:54:56.292Z,35.9440
2023-01-12T09:55:58.608Z,35.8540
2023-01-12T09:57:00.990Z,35.8720
2023-01-12T09:58:03.341Z,35.8770
2023-01-12T09:59:03.516Z,35.8620
2023-01-12T10:00:06.006Z,35.8240
2023-01-12T10:01:10.650Z,35.8940
2023-01-12T10:02:10.759Z,35.9040
2023-01-12T10:03:13.099Z,35.9270
2023-01-12T10:04:15.333Z,35.8730
2023-01-12T10:05:17.712Z,35.8280
2023-01-12T10:06:20.040Z,35.8450
2023-01-12T10:07:22.445Z,35.8330
2023-01-12T10:08:24.793Z,35.8200
2023-01-12T10:09:24.979Z,35.8200
2023-01-12T10:10:27.384Z,35.8070
2023-01-12T10:11:29.736Z,35.6770
2023-01-12T10:12:32.142Z,35.7150
2023-01-12T10:13:34.513Z,35.7260
2023-01-12T10:14:36.870Z,35.6890
2023-01-12T10:15:39.277Z,35.7390
2023-01-12T10:16:41.590Z,35.7230
2023-01-12T10:17:50.761Z,35.6830
2023-01-12T10:18:47.300Z,35.7740
2023-01-12T10:19:48.386Z,35.7000
2023-01-12T10:20:49.032Z,35.7470
2023-01-12T10:21:49.283Z,35.7500
2023-01-12T10:22:51.717Z,35.7150
2023-01-12T10:23:54.085Z,35.6830
2023-01-12T10:24:56.443Z,35.6910
2023-01-12T10:25:56.854Z,35.6890
2023-01-12T10:26:59.154Z,35.7170
2023-01-12T10:28:01.602Z,35.7120
2023-01-12T10:29:04.028Z,35.7020
2023-01-12T10:30:04.301Z,35.7150
2023-01-12T10:31:06.776Z,35.6600
2023-01-12T10:32:09.055Z,35.6090
2023-01-12T10:33:11.465Z,35.6660
2023-01-12T10:34:11.751Z,35.7050
2023-01-12T10:35:14.121Z,35.6350
2023-01-12T10:36:16.554Z,35.6680
2023-01-12T10:37:18.876Z,35.6880
2023-01-12T10:38:19.173Z,35.6940
2023-01-12T10:39:21.530Z,35.6880
2023-01-12T10:40:23.908Z,35.6620
2023-01-12T10:41:26.451Z,35.6550
2023-01-12T10:42:26.580Z,35.6430
2023-01-12T10:43:28.995Z,35.6820
2023-01-12T10:44:31.421Z,35.6300
2023-01-12T10:45:33.851Z,35.6330
2023-01-12T10:46:34.049Z,35.6250
2023-01-12T10:47:36.368Z,35.6240
2023-01-12T10:48:38.780Z,35.5830
2023-01-12T10:49:41.154Z,35.5900
2023-01-12T10:50:43.475Z,35.5600
2023-01-12T10:51:45.859Z,35.5710
2023-01-12T10:52:48.247Z,35.5980
2023-01-12T10:53:50.647Z,35.6190
2023-01-12T10:54:50.886Z,35.6360
2023-01-12T10:55:53.292Z,35.6470
2023-01-12T10:56:55.673Z,35.6470
2023-01-12T10:57:58.052Z,35.6390
2023-01-12T10:58:58.331Z,35.6320
2023-01-12T11:00:00.747Z,35.6560
2023-01-12T11:01:03.263Z,35.6350
2023-01-12T11:02:05.759Z,35.6560
2023-01-12T11:03:05.798Z,35.6640
2023-01-12T11:04:08.081Z,35.5770
2023-01-12T11:05:10.521Z,35.5540
2023-01-12T11:06:12.904Z,35.5650
2023-01-12T11:07:13.258Z,35.5200
2023-01-12T11:08:15.517Z,35.5370
2023-01-12T11:09:17.957Z,35.5310
2023-01-12T11:10:20.340Z,35.5610
2023-01-12T11:11:20.553Z,35.5730
2023-01-12T11:12:23.068Z,35.5480
2023-01-12T11:13:25.345Z,35.4960
2023-01-12T11:14:27.756Z,35.5130
2023-01-12T11:15:28.011Z,35.4900
2023-01-12T11:16:30.421Z,35.4580
2023-01-12T11:17:32.703Z,35.4450
2023-01-12T11:18:34.997Z,35.4090
2023-01-12T11:19:37.343Z,35.4510
2023-01-12T11:20:37.548Z,35.3940
2023-01-12T11:21:39.942Z,35.3940
2023-01-12T11:22:42.363Z,35.4410
2023-01-12T11:23:44.622Z,35.4200
2023-01-12T11:24:46.972Z,35.4370
2023-01-12T11:25:47.170Z,35.4350
2023-01-12T11:26:49.459Z,35.3900
2023-01-12T11:27:51.826Z,35.3860
2023-01-12T11:28:54.051Z,35.3100
2023-01-12T11:29:56.357Z,35.3750
2023-01-12T11:30:58.730Z,35.4080
2023-01-12T11:31:58.808Z,35.3930
2023-01-12T11:33:01.192Z,35.4170
2023-01-12T11:34:03.534Z,35.3850
2023-01-12T11:35:04.856Z,35.3660
2023-01-12T11:36:06.135Z,35.3970
2023-01-12T11:37:06.337Z,35.3390
2023-01-12T11:38:08.754Z,35.3440
2023-01-12T11:39:11.110Z,35.3060
2023-01-12T11:40:13.566Z,35.3210
2023-01-12T11:41:13.784Z,35.3860
2023-01-12T11:42:16.163Z,35.4080
2023-01-12T11:43:18.539Z,35.4380
2023-01-12T11:44:20.899Z,35.4880
2023-01-12T11:45:21.144Z,35.4780
2023-01-12T11:46:23.717Z,35.4710
2023-01-12T11:47:25.925Z,35.5140
2023-01-12T11:48:28.317Z,35.5200
2023-01-12T11:49:30.624Z,35.5480
2023-01-12T11:50:30.876Z,35.5540
2023-01-12T11:51:33.264Z,35.5370
2023-01-12T11:52:35.680Z,35.5310
2023-01-12T11:53:39.586Z,35.5480
2023-01-12T11:54:38.245Z,35.5800
2023-01-12T11:55:40.613Z,35.5660
2023-01-12T11:56:42.974Z,35.5480
2023-01-12T11:57:45.337Z,35.5660
2023-01-12T11:58:47.865Z,35.5420
2023-01-12T11:59:47.958Z,35.5410
2023-01-12T12:00:50.390Z,35.4940
2023-01-12T12:01:52.680Z,35.4970
2023-01-12T12:02:55.031Z,35.5370
2023-01-12T12:03:55.361Z,35.5410
2023-01-12T12:04:57.569Z,35.5060
2023-01-12T12:05:59.915Z,35.5190
2023-01-12T12:07:02.279Z,35.5250
2023-01-12T12:08:04.593Z,35.5240
2023-01-12T12:09:06.932Z,35.4980
2023-01-12T12:10:07.085Z,35.4970
2023-01-12T12:11:09.446Z,35.5360
2023-01-12T12:12:11.752Z,35.5060
2023-01-12T12:13:13.999Z,35.4940
2023-01-12T12:14:16.370Z,35.5130
2023-01-12T12:15:16.482Z,35.4940
2023-01-12T12:16:18.892Z,35.4890
2023-01-12T12:17:21.141Z,35.5060
2023-01-12T12:18:22.294Z,35.5110
2023-01-12T12:19:24.764Z,35.6950
2023-01-12T12:20:26.949Z,35.7700
2023-01-12T12:21:29.297Z,35.8590
2023-01-12T12:22:29.496Z,35.8860
2023-01-12T12:23:31.869Z,35.4360
2023-01-12T12:24:34.265Z,35.3750
2023-01-12T12:25:36.559Z,35.4580
2023-01-12T12:26:38.852Z,35.5080
2023-01-12T12:27:41.194Z,35.5640
2023-01-12T12:28:41.389Z,35.6240
2023-01-12T12:29:43.792Z,35.6510
2023-01-12T12:30:46.232Z,35.6940